Time;durP1;ratioP1;P1;durP2;ratioP2;P2;SDS_P1;SDS_P2;PMS_P1;PMS_P2;Temp;Humidity;BMP_temperature;BMP_pressure;BME280_temperature;BME280_humidity;BME280_pressure;Samples;Min_cycle;Max_cycle;Signal;HPM_P1;HPM_P2
2023/03/12 00:00:42;;;;;;;10.73;5.25;;;5.60;79.60;;;;;;5014386;28;20394;-79
2023/03/12 00:03:08;;;;;;;10.27;5.40;;;5.40;80.20;;;;;;5027229;28;20055;-73
2023/03/12 00:05:38;;;;;;;12.52;5.25;;;5.30;80.40;;;;;;5026811;28;20029;-77
2023/03/12 00:08:05;;;;;;;9.90;5.20;;;5.40;81.10;;;;;;5029097;28;20529;-79
2023/03/12 00:10:31;;;;;;;11.07;5.50;;;5.40;81.10;;;;;;5009051;28;20695;-74
2023/03/12 00:12:57;;;;;;;11.95;6.07;;;5.40;81.10;;;;;;5026952;28;20361;-76
2023/03/12 00:15:23;;;;;;;12.13;5.55;;;5.40;81.30;;;;;;5010084;28;20037;-74
2023/03/12 00:17:49;;;;;;;11.27;5.72;;;5.40;81.80;;;;;;5029131;28;20453;-73
2023/03/12 00:20:16;;;;;;;14.70;6.43;;;5.30;82.20;;;;;;5027568;28;20032;-82
2023/03/12 00:22:42;;;;;;;12.93;5.82;;;5.20;82.30;;;;;;5026471;28;20386;-75
2023/03/12 00:25:14;;;;;;;12.15;5.32;;;5.30;82.50;;;;;;5012921;28;20017;-75
2023/03/12 00:27:41;;;;;;;14.43;5.95;;;5.30;82.70;;;;;;5027506;28;20034;-76
2023/03/12 00:30:09;;;;;;;14.60;5.85;;;5.30;82.60;;;;;;5028606;28;20029;-76
2023/03/12 00:32:36;;;;;;;11.15;5.85;;;5.20;82.70;;;;;;5037347;28;20025;-74
2023/03/12 00:35:03;;;;;;;10.27;5.55;;;5.20;82.80;;;;;;5021963;28;20945;-74
2023/03/12 00:37:31;;;;;;;11.38;5.70;;;5.20;83.00;;;;;;5026233;28;20041;-72
2023/03/12 00:39:58;;;;;;;12.02;6.35;;;5.20;83.20;;;;;;5028389;28;20041;-73
2023/03/12 00:42:23;;;;;;;9.55;5.18;;;5.20;83.20;;;;;;5027688;28;20083;-74
2023/03/12 00:44:49;;;;;;;10.18;5.35;;;5.20;83.30;;;;;;5027718;28;20029;-78
2023/03/12 00:47:15;;;;;;;11.95;5.72;;;5.20;83.00;;;;;;5031448;28;20103;-77
2023/03/12 00:49:41;;;;;;;12.00;6.35;;;5.20;82.70;;;;;;5029620;28;20549;-79
2023/03/12 00:52:07;;;;;;;13.80;6.03;;;5.30;82.80;;;;;;5020193;28;20529;-74
2023/03/12 00:54:33;;;;;;;12.52;5.60;;;5.20;82.80;;;;;;5030356;28;20470;-72
2023/03/12 00:56:58;;;;;;;12.95;5.85;;;5.30;82.80;;;;;;5024795;28;20068;-76
2023/03/12 00:59:24;;;;;;;10.98;6.07;;;5.30;82.90;;;;;;5029942;28;20059;-73
2023/03/12 01:01:50;;;;;;;9.85;5.18;;;5.30;82.90;;;;;;5026241;28;20045;-80
2023/03/12 01:04:16;;;;;;;12.27;5.50;;;5.30;83.10;;;;;;5025436;28;20793;-73
2023/03/12 01:06:42;;;;;;;13.02;6.05;;;5.30;83.30;;;;;;5024384;28;20061;-74
2023/03/12 01:09:08;;;;;;;10.52;5.95;;;5.30;83.30;;;;;;5018451;28;20028;-78
2023/03/12 01:11:35;;;;;;;10.80;6.00;;;5.20;83.30;;;;;;5038858;28;20129;-73
2023/03/12 01:14:01;;;;;;;13.38;5.65;;;5.30;83.60;;;;;;5028450;28;20079;-74
2023/03/12 01:16:29;;;;;;;13.90;6.20;;;5.20;83.70;;;;;;5022851;28;20786;-76
2023/03/12 01:18:59;;;;;;;11.63;6.05;;;5.30;83.90;;;;;;5026850;28;20037;-74
2023/03/12 01:21:26;;;;;;;15.20;6.88;;;5.30;84.10;;;;;;5026827;28;20091;-72
2023/03/12 01:23:52;;;;;;;12.18;6.63;;;5.30;84.20;;;;;;5030177;28;20025;-78
2023/03/12 01:26:18;;;;;;;11.80;6.47;;;5.30;84.50;;;;;;5012590;28;20061;-72
2023/03/12 01:28:44;;;;;;;10.40;6.35;;;5.30;84.50;;;;;;5024116;28;20111;-84
2023/03/12 01:31:13;;;;;;;10.68;6.10;;;5.30;84.60;;;;;;5032396;28;20650;-75
2023/03/12 01:33:39;;;;;;;13.32;6.40;;;5.20;84.80;;;;;;5028280;28;20021;-84
2023/03/12 01:36:16;;;;;;;14.18;6.97;;;5.20;85.00;;;;;;5027643;28;20590;-75
2023/03/12 01:38:42;;;;;;;12.45;6.53;;;5.30;85.20;;;;;;5028728;28;20490;-77
2023/03/12 01:41:08;;;;;;;14.60;7.03;;;5.20;85.30;;;;;;5019554;28;20048;-73
2023/03/12 01:43:37;;;;;;;16.83;7.13;;;5.20;85.50;;;;;;5032736;28;20101;-73
2023/03/12 01:46:18;;;;;;;11.85;6.38;;;5.20;85.60;;;;;;5020382;28;20045;-81
2023/03/12 01:48:53;;;;;;;14.80;7.20;;;5.20;85.50;;;;;;5028750;28;20022;-83
2023/03/12 01:51:21;;;;;;;15.30;6.88;;;5.20;85.60;;;;;;5029468;28;20037;-74
2023/03/12 01:53:49;;;;;;;12.07;7.22;;;5.10;85.70;;;;;;5021068;28;20036;-76
2023/03/12 01:56:17;;;;;;;13.65;6.97;;;5.10;86.00;;;;;;5010435;28;20600;-72
2023/03/12 01:58:57;;;;;;;12.40;6.45;;;5.10;86.00;;;;;;5026520;28;20057;-75
2023/03/12 02:01:24;;;;;;;11.57;6.60;;;5.10;85.90;;;;;;5026769;28;20034;-74
2023/03/12 02:03:54;;;;;;;14.45;6.93;;;5.10;85.90;;;;;;5028069;28;20083;-75
2023/03/12 02:06:25;;;;;;;12.15;6.03;;;5.10;85.80;;;;;;5025384;28;20044;-74
2023/03/12 02:08:52;;;;;;;12.73;7.30;;;5.10;86.00;;;;;;5036593;28;20385;-74
2023/03/12 02:11:18;;;;;;;10.35;6.20;;;5.10;85.80;;;;;;5027188;28;20549;-81
2023/03/12 02:13:44;;;;;;;15.77;6.75;;;5.10;85.80;;;;;;5027144;28;20120;-73
2023/03/12 02:16:10;;;;;;;16.85;6.70;;;5.10;85.90;;;;;;5028091;28;20033;-73
2023/03/12 02:18:36;;;;;;;12.65;6.43;;;5.10;85.80;;;;;;5024486;28;20489;-81
2023/03/12 02:21:36;;;;;;;14.73;7.10;;;5.10;85.80;;;;;;5022219;28;20050;-73
2023/03/12 02:24:10;;;;;;;12.73;6.60;;;5.20;85.80;;;;;;4990195;28;20033;-75
2023/03/12 02:26:37;;;;;;;14.40;6.70;;;5.10;85.70;;;;;;5009554;28;20359;-77
2023/03/12 02:29:03;;;;;;;19.98;6.93;;;5.20;85.60;;;;;;5027729;28;20033;-75
2023/03/12 02:31:36;;;;;;;12.25;6.75;;;5.20;85.60;;;;;;5027168;28;20033;-74
2023/03/12 02:34:02;;;;;;;11.48;6.63;;;5.20;85.60;;;;;;5025902;28;20084;-72
2023/03/12 02:36:28;;;;;;;13.15;6.72;;;5.20;85.60;;;;;;5025956;28;20188;-78
2023/03/12 02:38:55;;;;;;;16.98;8.07;;;5.20;85.40;;;;;;5029049;28;20803;-73
2023/03/12 02:41:27;;;;;;;14.70;7.15;;;5.20;85.50;;;;;;5032487;28;20056;-75
2023/03/12 02:44:17;;;;;;;15.77;8.05;;;5.20;85.40;;;;;;5024103;28;20029;-77
2023/03/12 02:46:49;;;;;;;12.93;7.18;;;5.20;85.60;;;;;;5027070;28;20136;-77
2023/03/12 02:49:16;;;;;;;14.57;8.02;;;5.20;85.70;;;;;;5018019;28;20036;-77
2023/03/12 02:51:44;;;;;;;16.42;7.65;;;5.20;85.80;;;;;;5021760;28;20180;-81
2023/03/12 02:54:11;;;;;;;17.13;9.00;;;5.20;86.00;;;;;;5024223;28;20030;-74
2023/03/12 02:56:37;;;;;;;16.30;8.80;;;5.20;86.00;;;;;;5028333;28;20033;-74
2023/03/12 02:59:03;;;;;;;15.88;8.10;;;5.20;86.00;;;;;;5030599;28;20107;-73
2023/03/12 03:01:32;;;;;;;16.30;9.13;;;5.20;86.20;;;;;;5025177;28;20045;-72
2023/03/12 03:03:59;;;;;;;15.43;9.50;;;5.20;86.30;;;;;;5026612;28;20028;-72
2023/03/12 03:06:25;;;;;;;19.00;9.32;;;5.20;86.40;;;;;;5028598;28;20042;-74
2023/03/12 03:08:51;;;;;;;16.50;10.00;;;5.20;86.40;;;;;;5028402;28;20033;-72
2023/03/12 03:11:17;;;;;;;20.92;9.93;;;5.20;86.40;;;;;;5025912;28;20045;-79
2023/03/12 03:13:43;;;;;;;17.63;10.40;;;5.20;86.60;;;;;;5024983;28;20029;-78
2023/03/12 03:16:11;;;;;;;20.17;10.35;;;5.20;86.70;;;;;;5018711;28;20044;-72
2023/03/12 03:18:37;;;;;;;20.58;10.93;;;5.20;86.80;;;;;;5023718;28;20029;-76
2023/03/12 03:21:08;;;;;;;21.90;11.63;;;5.20;87.10;;;;;;5026188;28;20041;-73
2023/03/12 03:23:34;;;;;;;24.45;12.18;;;5.20;87.20;;;;;;5027808;28;20084;-73
2023/03/12 03:26:00;;;;;;;19.42;11.05;;;5.10;87.60;;;;;;5033127;28;20052;-75
2023/03/12 03:28:28;;;;;;;25.25;11.90;;;5.20;87.70;;;;;;5026394;28;20021;-76
2023/03/12 03:31:00;;;;;;;18.63;12.73;;;5.30;87.90;;;;;;5023524;28;20042;-73
2023/03/12 03:33:27;;;;;;;23.00;13.35;;;5.20;87.70;;;;;;5026609;28;20017;-73
2023/03/12 03:35:54;;;;;;;23.63;13.15;;;5.20;88.00;;;;;;5025819;28;20028;-73
2023/03/12 03:38:21;;;;;;;22.02;13.13;;;5.30;88.20;;;;;;5025795;28;20040;-73
2023/03/12 03:40:46;;;;;;;20.48;13.57;;;5.20;88.30;;;;;;5023330;28;20128;-76
2023/03/12 03:43:12;;;;;;;29.58;14.75;;;5.20;88.40;;;;;;5009156;28;20112;-82
2023/03/12 03:45:38;;;;;;;23.05;14.90;;;5.20;88.70;;;;;;5025930;28;20125;-73
2023/03/12 03:48:04;;;;;;;23.48;14.90;;;5.20;89.10;;;;;;5002385;28;20671;-77
2023/03/12 03:50:30;;;;;;;23.27;15.35;;;5.20;89.30;;;;;;5024561;28;20029;-73
2023/03/12 03:52:56;;;;;;;27.40;15.85;;;5.20;89.50;;;;;;5025130;28;20029;-73
2023/03/12 03:55:21;;;;;;;27.52;15.55;;;5.20;89.60;;;;;;5033469;28;20029;-75
2023/03/12 03:57:47;;;;;;;26.70;17.17;;;5.20;89.80;;;;;;5036126;28;20132;-74
2023/03/12 04:00:16;;;;;;;25.25;17.00;;;5.20;90.00;;;;;;5025623;28;20052;-76
2023/03/12 04:02:43;;;;;;;28.20;18.10;;;5.20;90.10;;;;;;5026853;28;20025;-73
2023/03/12 04:05:09;;;;;;;29.65;18.70;;;5.20;90.30;;;;;;5028812;28;20026;-73
2023/03/12 04:07:36;;;;;;;31.67;19.50;;;5.20;90.40;;;;;;5010179;28;20033;-76
2023/03/12 04:10:02;;;;;;;31.77;20.52;;;5.30;90.60;;;;;;5026579;28;21016;-74
2023/03/12 04:12:28;;;;;;;30.98;19.92;;;5.20;90.70;;;;;;5028488;28;20048;-73
2023/03/12 04:14:54;;;;;;;32.75;21.00;;;5.30;90.80;;;;;;5024272;28;20045;-79
2023/03/12 04:17:21;;;;;;;32.83;21.73;;;5.30;91.00;;;;;;5005278;28;20565;-77
2023/03/12 04:19:46;;;;;;;34.08;21.08;;;5.30;91.10;;;;;;5004049;28;20072;-75
2023/03/12 04:22:12;;;;;;;33.40;21.35;;;5.30;91.30;;;;;;5024242;28;20069;-77
2023/03/12 04:24:38;;;;;;;34.65;21.70;;;5.40;91.30;;;;;;5031098;28;20086;-73
2023/03/12 04:27:03;;;;;;;33.42;23.27;;;5.40;91.40;;;;;;5013926;28;20030;-77
2023/03/12 04:29:29;;;;;;;34.00;21.80;;;5.40;91.50;;;;;;5029764;28;20053;-73
2023/03/12 04:31:55;;;;;;;35.97;22.08;;;5.40;91.60;;;;;;5015293;28;20046;-80
2023/03/12 04:34:21;;;;;;;32.08;22.40;;;5.50;91.60;;;;;;5032792;28;20545;-81
2023/03/12 04:36:46;;;;;;;35.70;23.80;;;5.50;91.70;;;;;;5027605;28;20065;-73
2023/03/12 04:39:15;;;;;;;35.35;23.52;;;5.50;91.70;;;;;;5028468;28;20377;-74
2023/03/12 04:41:41;;;;;;;36.60;24.60;;;5.50;91.80;;;;;;5028020;28;20398;-79
2023/03/12 04:44:07;;;;;;;36.33;24.08;;;5.60;91.80;;;;;;5029018;28;20025;-77
2023/03/12 04:46:32;;;;;;;39.33;24.25;;;5.60;91.90;;;;;;5026890;28;20434;-74
2023/03/12 04:49:01;;;;;;;38.13;23.60;;;5.60;91.90;;;;;;5012885;28;20018;-72
2023/03/12 04:51:28;;;;;;;35.33;23.40;;;5.60;92.00;;;;;;5026665;28;20045;-74
2023/03/12 04:53:53;;;;;;;34.42;23.23;;;5.60;92.10;;;;;;5030693;28;20025;-74
2023/03/12 04:56:19;;;;;;;36.35;23.80;;;5.70;92.00;;;;;;5026434;28;20709;-75
2023/03/12 04:58:45;;;;;;;33.20;23.20;;;5.70;92.10;;;;;;5023018;28;20113;-76
2023/03/12 05:01:26;;;;;;;33.72;23.77;;;5.70;92.20;;;;;;5028239;28;20147;-79
2023/03/12 05:03:53;;;;;;;37.53;23.63;;;5.70;92.30;;;;;;5026321;28;20525;-78
2023/03/12 05:06:20;;;;;;;35.35;26.13;;;5.70;92.30;;;;;;5026735;28;20072;-78
2023/03/12 05:08:46;;;;;;;33.78;24.08;;;5.80;92.40;;;;;;5009117;28;20025;-74
2023/03/12 05:11:12;;;;;;;37.00;24.55;;;5.80;92.40;;;;;;5025222;28;20044;-81
2023/03/12 05:13:37;;;;;;;34.65;24.95;;;5.80;92.40;;;;;;5024648;28;20315;-75
2023/03/12 05:16:04;;;;;;;37.80;26.02;;;5.90;92.50;;;;;;5022602;28;20486;-74
2023/03/12 05:18:29;;;;;;;35.78;25.60;;;5.90;92.50;;;;;;5018776;28;20395;-73
2023/03/12 05:21:05;;;;;;;33.92;25.95;;;5.90;92.50;;;;;;5027132;28;20045;-76
2023/03/12 05:23:33;;;;;;;37.65;23.80;;;5.90;92.60;;;;;;5021342;28;20106;-73
2023/03/12 05:25:59;;;;;;;37.45;26.23;;;6.00;92.70;;;;;;5021663;28;20038;-80
2023/03/12 05:28:27;;;;;;;39.55;25.63;;;6.10;92.70;;;;;;5023347;28;20075;-78
2023/03/12 05:30:57;;;;;;;38.58;27.08;;;6.10;92.60;;;;;;5025758;28;20044;-73
2023/03/12 05:33:24;;;;;;;35.22;27.02;;;6.10;92.70;;;;;;5020898;28;20025;-76
2023/03/12 05:35:50;;;;;;;40.42;27.55;;;6.10;92.70;;;;;;5023124;28;20088;-78
2023/03/12 05:38:15;;;;;;;39.03;27.02;;;6.10;92.80;;;;;;5023801;28;20025;-76
2023/03/12 05:40:41;;;;;;;39.95;28.08;;;6.20;92.80;;;;;;5022483;28;20056;-76
2023/03/12 05:43:07;;;;;;;40.33;27.38;;;6.20;92.90;;;;;;5024376;28;20248;-72
2023/03/12 05:45:33;;;;;;;39.00;26.27;;;6.30;92.90;;;;;;5023885;28;20053;-74
2023/03/12 05:47:59;;;;;;;38.15;26.90;;;6.30;92.90;;;;;;5025028;28;20033;-78
2023/03/12 05:50:25;;;;;;;40.08;27.13;;;6.40;93.00;;;;;;5020626;28;20076;-77
2023/03/12 05:52:51;;;;;;;37.80;26.67;;;6.40;92.90;;;;;;5023795;28;20068;-84
2023/03/12 05:55:17;;;;;;;39.42;25.65;;;6.40;93.00;;;;;;5027221;28;20122;-72
2023/03/12 05:57:42;;;;;;;44.67;28.00;;;6.50;93.10;;;;;;5023878;28;20034;-83
2023/03/12 06:00:11;;;;;;;36.47;25.65;;;6.50;93.10;;;;;;5028385;28;20042;-80
2023/03/12 06:02:37;;;;;;;38.97;28.77;;;6.50;93.10;;;;;;5022123;28;20037;-74
2023/03/12 06:05:03;;;;;;;40.47;26.70;;;6.50;93.10;;;;;;5024111;28;20731;-73
2023/03/12 06:07:29;;;;;;;41.95;27.55;;;6.60;93.20;;;;;;5026327;28;20026;-83
2023/03/12 06:09:54;;;;;;;37.22;27.33;;;6.60;93.30;;;;;;5008884;28;20615;-78
2023/03/12 06:12:20;;;;;;;44.85;28.17;;;6.70;93.40;;;;;;5022684;28;20477;-78
2023/03/12 06:14:46;;;;;;;38.75;27.13;;;6.70;93.40;;;;;;5026379;28;20032;-74
2023/03/12 06:17:11;;;;;;;43.15;28.52;;;6.80;93.40;;;;;;5031124;28;20057;-78
2023/03/12 06:19:37;;;;;;;41.28;27.42;;;6.80;93.50;;;;;;5028883;28;20041;-76
2023/03/12 06:22:03;;;;;;;47.72;28.55;;;6.80;93.50;;;;;;5025252;28;20030;-73
2023/03/12 06:24:28;;;;;;;41.72;26.95;;;6.90;93.60;;;;;;5024270;28;20461;-77
2023/03/12 06:26:54;;;;;;;38.95;26.67;;;7.00;93.70;;;;;;5026114;28;20049;-76
2023/03/12 06:29:20;;;;;;;45.47;26.92;;;7.00;93.80;;;;;;5026605;28;20620;-73
2023/03/12 06:31:47;;;;;;;44.88;25.33;;;7.10;93.80;;;;;;5024560;28;20488;-78
2023/03/12 06:34:12;;;;;;;40.10;24.45;;;7.20;94.00;;;;;;5022477;28;20025;-73
2023/03/12 06:36:38;;;;;;;49.58;24.85;;;7.30;94.10;;;;;;5025742;28;20046;-73
2023/03/12 06:39:08;;;;;;;49.97;23.65;;;7.40;94.10;;;;;;5023648;28;20097;-81
2023/03/12 06:41:35;;;;;;;45.78;24.17;;;7.40;94.20;;;;;;5026114;28;20037;-74
2023/03/12 06:44:04;;;;;;;48.30;22.88;;;7.50;94.30;;;;;;5023066;28;20017;-72
2023/03/12 06:46:30;;;;;;;48.22;22.70;;;7.60;94.40;;;;;;5021222;28;20056;-76
2023/03/12 06:48:56;;;;;;;50.92;20.13;;;7.70;94.40;;;;;;5026596;28;20028;-77
2023/03/12 06:51:22;;;;;;;51.58;19.42;;;7.80;94.50;;;;;;5023755;28;20366;-79
2023/03/12 06:53:48;;;;;;;51.35;18.75;;;7.90;94.50;;;;;;5020762;28;20033;-82
2023/03/12 06:56:14;;;;;;;52.60;18.05;;;8.00;94.50;;;;;;5019254;28;20050;-77
2023/03/12 06:58:40;;;;;;;50.42;19.45;;;8.10;94.50;;;;;;5026757;28;20021;-75
2023/03/12 07:01:06;;;;;;;57.40;19.48;;;8.10;94.50;;;;;;5023547;28;20049;-75
2023/03/12 07:03:32;;;;;;;48.72;18.30;;;8.20;94.50;;;;;;5028025;28;20041;-73
2023/03/12 07:05:58;;;;;;;55.83;18.05;;;8.30;94.50;;;;;;5026468;28;20497;-77
2023/03/12 07:08:25;;;;;;;54.60;18.77;;;8.40;94.40;;;;;;5020853;28;20025;-73
2023/03/12 07:10:50;;;;;;;57.28;18.95;;;8.50;94.40;;;;;;5022694;28;20040;-73
2023/03/12 07:13:16;;;;;;;53.33;18.10;;;8.50;94.30;;;;;;5022478;28;20022;-83
2023/03/12 07:15:43;;;;;;;58.97;17.80;;;8.60;94.20;;;;;;5023779;28;20025;-75
2023/03/12 07:18:10;;;;;;;57.95;16.27;;;8.60;94.10;;;;;;5023721;28;20033;-76
2023/03/12 07:20:39;;;;;;;61.60;17.45;;;8.60;94.10;;;;;;5021976;28;20037;-78
2023/03/12 07:23:05;;;;;;;53.80;14.82;;;8.70;93.90;;;;;;5023270;28;20033;-75
2023/03/12 07:25:35;;;;;;;45.97;16.13;;;8.70;93.80;;;;;;5019766;28;20033;-81
2023/03/12 07:28:00;;;;;;;47.15;15.43;;;8.80;93.70;;;;;;5019931;28;20021;-84
2023/03/12 07:30:26;;;;;;;43.72;14.68;;;8.90;93.70;;;;;;5023266;28;20036;-73
2023/03/12 07:32:52;;;;;;;42.42;13.30;;;8.90;93.60;;;;;;5021802;28;20029;-79
2023/03/12 07:35:17;;;;;;;61.53;14.27;;;9.00;93.40;;;;;;5025880;28;20609;-82
2023/03/12 07:37:43;;;;;;;45.78;12.80;;;9.10;93.20;;;;;;5020802;28;20162;-78
2023/03/12 07:40:09;;;;;;;49.95;13.10;;;9.10;93.20;;;;;;5020472;28;20044;-74
2023/03/12 07:42:35;;;;;;;44.92;12.57;;;9.20;92.90;;;;;;5020416;28;20033;-79
2023/03/12 07:45:01;;;;;;;47.28;13.77;;;9.30;92.90;;;;;;5021180;28;20359;-79
2023/03/12 07:47:27;;;;;;;59.20;11.98;;;9.40;92.60;;;;;;5021068;28;20033;-77
2023/03/12 07:49:52;;;;;;;47.05;11.30;;;9.50;92.40;;;;;;5020364;28;20810;-74
2023/03/12 07:52:19;;;;;;;48.05;11.38;;;9.60;92.00;;;;;;5021668;28;20456;-72
2023/03/12 07:54:44;;;;;;;48.35;11.40;;;9.60;91.70;;;;;;5025973;28;20025;-74
2023/03/12 07:57:10;;;;;;;42.55;10.63;;;9.70;91.60;;;;;;5022593;28;20040;-77
2023/03/12 07:59:36;;;;;;;50.13;11.45;;;9.80;91.40;;;;;;5021890;28;20025;-85
2023/03/12 08:02:02;;;;;;;50.75;10.30;;;9.80;91.00;;;;;;5029502;28;20446;-78
2023/03/12 08:04:27;;;;;;;48.97;9.82;;;9.90;90.80;;;;;;5025709;28;20025;-73
2023/03/12 08:06:53;;;;;;;46.72;10.20;;;10.10;90.60;;;;;;5027378;28;20083;-82
2023/03/12 08:09:19;;;;;;;56.50;11.65;;;10.10;90.30;;;;;;5032215;28;20034;-73
2023/03/12 08:11:44;;;;;;;42.28;10.00;;;10.20;89.90;;;;;;5031039;28;20030;-79
2023/03/12 08:14:10;;;;;;;46.10;10.02;;;10.30;89.90;;;;;;5026274;28;20026;-74
2023/03/12 08:16:36;;;;;;;51.33;11.88;;;10.30;89.40;;;;;;5029499;28;20029;-74
2023/03/12 08:19:01;;;;;;;48.15;11.20;;;10.40;89.30;;;;;;5028301;28;21700;-82
2023/03/12 08:21:27;;;;;;;37.72;8.80;;;10.40;89.20;;;;;;5027038;28;20065;-73
2023/03/12 08:23:53;;;;;;;49.72;10.05;;;10.40;89.10;;;;;;5031029;28;20449;-77
2023/03/12 08:26:18;;;;;;;40.42;10.27;;;10.60;88.70;;;;;;5025032;28;20034;-71
2023/03/12 08:28:44;;;;;;;40.85;9.30;;;10.60;88.50;;;;;;5033345;28;20032;-78
2023/03/12 08:31:10;;;;;;;42.63;9.80;;;10.70;87.80;;;;;;5028470;28;20499;-76
2023/03/12 08:33:36;;;;;;;42.47;9.18;;;10.60;87.90;;;;;;5015191;28;20463;-74
2023/03/12 08:36:01;;;;;;;41.70;8.68;;;10.60;87.90;;;;;;5019940;28;20082;-74
2023/03/12 08:38:27;;;;;;;46.67;9.93;;;10.70;87.90;;;;;;5023392;28;20086;-79
2023/03/12 08:40:57;;;;;;;44.05;9.32;;;10.70;87.90;;;;;;5020760;28;20049;-75
2023/03/12 08:43:23;;;;;;;42.00;9.20;;;10.80;87.60;;;;;;5020971;28;20108;-75
2023/03/12 08:46:00;;;;;;;42.58;9.52;;;11.00;87.20;;;;;;5019162;28;20045;-81
2023/03/12 08:48:28;;;;;;;52.47;10.05;;;11.10;86.70;;;;;;5022546;28;20025;-76
2023/03/12 08:50:55;;;;;;;39.80;9.25;;;11.30;86.30;;;;;;5023001;28;20132;-73
2023/03/12 08:53:21;;;;;;;51.80;9.40;;;11.30;85.40;;;;;;5021954;28;20025;-74
2023/03/12 08:55:47;;;;;;;47.20;10.13;;;11.20;85.60;;;;;;5005951;28;20092;-75
2023/03/12 08:58:13;;;;;;;44.22;9.18;;;11.20;85.60;;;;;;5021346;28;20049;-77
2023/03/12 09:00:39;;;;;;;38.40;8.48;;;11.20;85.60;;;;;;5018484;28;20065;-77
2023/03/12 09:03:04;;;;;;;48.15;9.82;;;11.20;85.60;;;;;;5023112;28;20057;-76
2023/03/12 09:05:31;;;;;;;45.47;9.80;;;11.10;86.00;;;;;;5021180;28;20088;-74
2023/03/12 09:07:56;;;;;;;45.60;9.93;;;11.20;85.80;;;;;;5019231;28;20040;-76
2023/03/12 09:10:23;;;;;;;46.33;10.43;;;11.20;85.70;;;;;;5023418;28;20029;-72
2023/03/12 09:12:48;;;;;;;51.17;11.93;;;11.40;85.30;;;;;;5022092;28;20611;-78
2023/03/12 09:15:14;;;;;;;42.13;9.13;;;11.50;84.70;;;;;;5023737;28;20026;-75
2023/03/12 09:17:40;;;;;;;49.38;10.23;;;11.60;84.60;;;;;;5024790;28;20099;-77
2023/03/12 09:20:08;;;;;;;45.97;11.15;;;11.80;83.70;;;;;;5021022;28;20095;-76
2023/03/12 09:22:35;;;;;;;42.90;9.77;;;11.90;83.30;;;;;;5023698;28;20043;-80
2023/03/12 09:25:03;;;;;;;41.00;8.75;;;12.00;82.70;;;;;;5021774;28;20030;-75
2023/03/12 09:27:29;;;;;;;51.83;11.07;;;12.10;83.10;;;;;;5023383;28;20624;-80
2023/03/12 09:29:54;;;;;;;40.95;9.68;;;12.00;82.20;;;;;;5030125;28;20029;-75
2023/03/12 09:32:20;;;;;;;40.85;10.07;;;12.00;82.00;;;;;;5025124;28;20044;-77
2023/03/12 09:34:46;;;;;;;43.13;10.70;;;11.90;82.30;;;;;;5028796;28;20025;-80
2023/03/12 09:37:12;;;;;;;40.25;9.63;;;11.90;82.40;;;;;;5024402;28;20052;-75
2023/03/12 09:39:38;;;;;;;46.65;9.90;;;12.10;82.10;;;;;;5016951;28;20061;-77
2023/03/12 09:42:12;;;;;;;43.75;9.23;;;12.10;82.30;;;;;;5023578;28;20061;-75
2023/03/12 09:44:42;;;;;;;35.17;8.65;;;12.00;82.10;;;;;;5023410;28;20056;-74
2023/03/12 09:47:20;;;;;;;36.92;9.23;;;11.90;81.90;;;;;;5025203;28;20053;-78
2023/03/12 09:49:50;;;;;;;43.17;10.55;;;12.00;82.10;;;;;;5021910;28;20048;-77
2023/03/12 09:52:43;;;;;;;50.90;10.15;;;12.10;82.00;;;;;;5022901;28;20037;-74
2023/03/12 09:55:15;;;;;;;43.97;10.35;;;12.30;82.30;;;;;;5023443;28;20075;-78
2023/03/12 09:57:41;;;;;;;47.05;10.75;;;12.30;81.50;;;;;;5020261;28;20083;-82
2023/03/12 10:00:15;;;;;;;41.92;10.02;;;12.30;81.50;;;;;;5026014;28;20116;-77
2023/03/12 10:02:59;;;;;;;35.53;9.30;;;12.40;81.40;;;;;;5018914;28;20048;-77
2023/03/12 10:05:44;;;;;;;45.38;9.63;;;12.40;81.20;;;;;;5021801;28;20048;-77
2023/03/12 10:08:19;;;;;;;42.40;9.85;;;12.40;81.70;;;;;;5006763;28;20039;-73
2023/03/12 10:11:04;;;;;;;49.35;10.55;;;12.60;81.10;;;;;;5001979;28;20474;-74
2023/03/12 10:13:54;;;;;;;49.25;11.27;;;12.70;80.50;;;;;;5018131;28;20444;-74
2023/03/12 10:17:00;;;;;;;48.60;10.20;;;12.70;80.30;;;;;;5021667;28;20682;-77
2023/03/12 10:19:48;;;;;;;43.72;9.05;;;12.80;80.90;;;;;;4996859;28;20052;-78
2023/03/12 10:22:39;;;;;;;43.85;9.43;;;12.90;80.30;;;;;;5018998;28;20033;-76
2023/03/12 10:25:26;;;;;;;43.03;10.13;;;13.10;79.30;;;;;;5021765;28;20021;-79
2023/03/12 10:27:57;;;;;;;41.85;10.23;;;13.20;79.10;;;;;;5026082;28;20063;-78
2023/03/12 10:30:26;;;;;;;44.72;10.00;;;13.50;78.10;;;;;;5006293;28;20076;-75
2023/03/12 10:32:59;;;;;;;44.72;9.57;;;13.70;77.30;;;;;;5021757;28;20029;-75
2023/03/12 10:35:29;;;;;;;45.00;10.07;;;13.70;76.50;;;;;;5020878;28;20021;-76
2023/03/12 10:38:02;;;;;;;40.10;9.27;;;13.80;75.80;;;;;;5020600;28;20072;-81
2023/03/12 10:40:33;;;;;;;40.70;9.75;;;13.90;75.70;;;;;;5021935;28;20053;-74
2023/03/12 10:43:00;;;;;;;49.20;8.63;;;13.90;75.20;;;;;;5024420;28;20041;-72
2023/03/12 10:46:00;;;;;;;41.72;9.95;;;14.00;74.90;;;;;;5027959;28;20081;-73
2023/03/12 10:48:26;;;;;;;42.05;8.50;;;14.20;74.20;;;;;;5017099;28;20038;-85
2023/03/12 10:51:04;;;;;;;41.88;8.77;;;14.40;74.30;;;;;;5022102;28;20044;-72
2023/03/12 10:53:37;;;;;;;37.97;9.35;;;14.60;72.30;;;;;;5020176;28;20079;-76
2023/03/12 10:56:09;;;;;;;42.78;8.75;;;14.40;72.50;;;;;;5021377;28;20141;-74
2023/03/12 10:58:37;;;;;;;41.05;9.82;;;14.40;72.10;;;;;;5021450;28;20108;-73
2023/03/12 11:01:14;;;;;;;40.67;10.15;;;14.30;72.80;;;;;;5025210;28;20111;-77
2023/03/12 11:03:40;;;;;;;42.35;10.05;;;14.50;73.10;;;;;;5019405;28;20048;-79
2023/03/12 11:06:10;;;;;;;42.30;10.18;;;14.90;71.20;;;;;;5019287;28;20052;-78
2023/03/12 11:08:36;;;;;;;38.70;9.60;;;14.80;70.40;;;;;;5021026;28;20025;-78
2023/03/12 11:11:03;;;;;;;37.33;9.65;;;14.80;69.50;;;;;;5017940;28;20072;-83
2023/03/12 11:13:40;;;;;;;42.03;9.45;;;15.10;69.50;;;;;;5016214;28;20017;-75
2023/03/12 11:16:17;;;;;;;41.70;8.45;;;15.10;69.90;;;;;;5017221;28;20100;-76
2023/03/12 11:19:05;;;;;;;34.20;7.75;;;14.60;68.60;;;;;;5018178;28;20087;-79
2023/03/12 11:21:35;;;;;;;32.08;7.43;;;14.40;69.30;;;;;;5014632;28;20095;-77
2023/03/12 11:24:06;;;;;;;40.05;9.68;;;14.20;69.90;;;;;;5018810;28;20169;-74
2023/03/12 11:26:58;;;;;;;34.97;8.50;;;14.10;70.60;;;;;;5016174;28;20042;-80
2023/03/12 11:29:31;;;;;;;34.63;7.50;;;13.80;70.90;;;;;;5013546;28;20036;-77
2023/03/12 11:32:02;;;;;;;39.65;8.23;;;13.70;71.50;;;;;;5018230;28;20052;-73
2023/03/12 11:34:32;;;;;;;34.30;8.13;;;13.70;72.10;;;;;;5020800;28;20032;-75
2023/03/12 11:37:04;;;;;;;34.53;7.97;;;13.60;70.60;;;;;;5012813;28;20049;-73
2023/03/12 11:40:08;;;;;;;32.35;7.03;;;13.50;71.00;;;;;;5019742;28;20056;-81
2023/03/12 11:42:40;;;;;;;33.65;7.82;;;13.40;71.40;;;;;;5018459;28;20105;-79
2023/03/12 11:45:20;;;;;;;33.22;7.68;;;13.40;71.00;;;;;;5013732;28;20751;-78
2023/03/12 11:47:57;;;;;;;36.63;7.50;;;13.50;70.20;;;;;;5019275;28;20048;-78
2023/03/12 11:50:32;;;;;;;31.10;6.93;;;13.70;69.30;;;;;;5015473;28;20087;-76
2023/03/12 11:53:23;;;;;;;33.63;7.80;;;13.60;69.20;;;;;;5018163;28;20200;-79
2023/03/12 11:56:16;;;;;;;31.58;7.80;;;13.70;68.20;;;;;;5016435;28;20021;-79
2023/03/12 11:59:13;;;;;;;32.63;8.35;;;14.00;69.00;;;;;;4995212;28;20632;-81
2023/03/12 12:01:54;;;;;;;29.23;6.80;;;14.30;67.70;;;;;;5022860;28;20045;-82
2023/03/12 12:04:51;;;;;;;29.45;6.45;;;14.50;67.00;;;;;;5010460;28;20076;-75
2023/03/12 12:07:50;;;;;;;31.10;7.03;;;14.40;65.50;;;;;;5006333;28;20049;-78
2023/03/12 12:10:38;;;;;;;29.58;6.50;;;14.30;65.80;;;;;;5007988;28;20037;-78
2023/03/12 12:13:29;;;;;;;31.08;7.25;;;14.40;65.80;;;;;;5019198;28;20091;-76
2023/03/12 12:16:03;;;;;;;27.67;6.40;;;14.60;65.40;;;;;;5008732;28;20061;-75
2023/03/12 12:18:38;;;;;;;;;;;14.40;65.10;;;;;;5026067;28;20060;-77
2023/03/12 12:21:12;;;;;;;32.50;7.40;;;14.40;65.50;;;;;;5019290;28;19932;-79
2023/03/12 12:24:14;;;;;;;29.45;7.35;;;14.20;66.30;;;;;;5025226;28;20304;-76
2023/03/12 12:27:20;;;;;;;26.50;6.38;;;14.50;66.70;;;;;;5018329;28;20141;-80
2023/03/12 12:30:06;;;;;;;30.40;6.97;;;14.30;65.40;;;;;;4972803;28;20042;-77
2023/03/12 12:32:41;;;;;;;33.60;7.47;;;14.50;65.80;;;;;;4998881;28;20034;-75
2023/03/12 12:35:25;;;;;;;27.35;6.57;;;14.80;65.80;;;;;;5015197;28;20025;-79
2023/03/12 12:38:15;;;;;;;29.83;7.90;;;14.70;64.90;;;;;;5019218;28;20289;-82
2023/03/12 12:40:45;;;;;;;27.33;6.75;;;14.80;64.40;;;;;;5001828;28;20327;-75
2023/03/12 12:43:28;;;;;;;33.92;7.03;;;14.70;65.10;;;;;;5018252;28;20096;-75
2023/03/12 12:46:32;;;;;;;31.65;6.60;;;14.80;65.80;;;;;;5017404;28;20044;-76
2023/03/12 12:49:11;;;;;;;33.55;6.75;;;14.60;65.60;;;;;;4984215;28;20515;-77
2023/03/12 12:51:43;;;;;;;24.02;6.40;;;14.70;64.60;;;;;;5020385;28;20329;-78